Time;durP1;ratioP1;P1;durP2;ratioP2;P2;SDS_P1;SDS_P2;PMS_P1;PMS_P2;Temp;Humidity;BMP_temperature;BMP_pressure;BME280_temperature;BME280_humidity;BME280_pressure;Samples;Min_cycle;Max_cycle;Signal;HPM_P1;HPM_P2
2022/01/12 00:01:42;;;;;;;67.90;36.42;;;3.70;99.90;;;;;;6221075;22;20414;-95
2022/01/12 00:04:08;;;;;;;75.15;37.00;;;3.70;99.90;;;;;;6222400;22;20016;-95
2022/01/12 00:06:33;;;;;;;67.63;35.03;;;3.70;99.90;;;;;;6221314;22;20016;-95
2022/01/12 00:09:05;;;;;;;77.43;38.38;;;3.70;99.90;;;;;;6222597;22;20129;-95
2022/01/12 00:11:31;;;;;;;72.93;37.30;;;3.70;99.90;;;;;;6246838;22;20075;-95
2022/01/12 00:13:56;;;;;;;85.93;40.30;;;3.70;99.90;;;;;;6222092;22;20023;-95
2022/01/12 00:16:22;;;;;;;77.25;38.22;;;3.80;99.90;;;;;;6221983;22;20019;-96
2022/01/12 00:18:48;;;;;;;92.22;40.80;;;3.70;99.90;;;;;;6221499;22;20449;-95
2022/01/12 00:21:14;;;;;;;90.97;40.78;;;3.80;99.90;;;;;;6248837;22;20050;-96
2022/01/12 00:23:40;;;;;;;97.65;41.78;;;3.80;99.90;;;;;;6222957;22;20012;-94
2022/01/12 00:26:37;;;;;;;104.05;43.13;;;3.70;99.90;;;;;;6223763;22;20333;-94
2022/01/12 00:34:30;;;;;;;128.32;44.90;;;3.80;99.90;;;;;;6248825;22;20016;-96
2022/01/12 00:36:56;;;;;;;88.57;40.70;;;3.80;99.90;;;;;;6223674;22;20073;-95
2022/01/12 00:39:22;;;;;;;96.72;42.17;;;3.80;99.90;;;;;;6223902;22;20035;-94
2022/01/12 00:41:48;;;;;;;90.20;40.35;;;3.80;99.90;;;;;;6222435;22;20012;-94
2022/01/12 00:44:25;;;;;;;89.90;41.17;;;3.80;99.90;;;;;;6223478;22;20027;-94
2022/01/12 00:46:52;;;;;;;95.80;41.20;;;3.80;99.90;;;;;;6223733;22;20108;-94
2022/01/12 00:49:18;;;;;;;87.82;39.10;;;3.80;99.90;;;;;;6223564;22;20014;-95
2022/01/12 00:51:44;;;;;;;148.13;46.60;;;3.80;99.90;;;;;;6248230;22;20403;-96
2022/01/12 00:54:09;;;;;;;101.35;42.35;;;3.80;99.90;;;;;;6223870;22;20445;-95
2022/01/12 00:56:35;;;;;;;82.88;39.17;;;3.80;99.90;;;;;;6222572;22;20023;-93
2022/01/12 00:59:02;;;;;;;81.55;38.55;;;3.80;99.90;;;;;;6223639;22;20404;-95
2022/01/12 01:01:28;;;;;;;85.20;40.55;;;3.80;99.90;;;;;;6222772;22;20387;-94
2022/01/12 01:03:54;;;;;;;91.50;40.95;;;3.80;99.90;;;;;;6223057;22;20388;-93
2022/01/12 01:06:22;;;;;;;75.85;38.42;;;3.80;99.90;;;;;;6223415;22;20011;-94
2022/01/12 01:08:51;;;;;;;79.28;36.92;;;3.80;99.90;;;;;;6222342;22;20347;-94
2022/01/12 01:11:17;;;;;;;89.00;40.22;;;3.80;99.90;;;;;;6223344;22;20019;-95
2022/01/12 01:13:57;;;;;;;80.35;37.83;;;3.90;99.90;;;;;;6222274;22;20008;-93
2022/01/12 01:27:38;;;;;;;66.85;33.72;;;3.90;99.90;;;;;;6155938;23;20112;-94
2022/01/12 01:30:04;;;;;;;71.45;35.00;;;3.90;99.90;;;;;;6132231;23;20104;-94
2022/01/12 01:32:30;;;;;;;84.50;38.72;;;3.90;99.90;;;;;;6156318;23;20067;-95
2022/01/12 01:34:55;;;;;;;73.43;37.92;;;3.90;99.90;;;;;;6156426;23;20020;-94
2022/01/12 01:37:21;;;;;;;80.18;36.08;;;3.90;99.90;;;;;;6157259;23;20048;-95
2022/01/12 01:39:47;;;;;;;88.03;39.45;;;3.90;99.90;;;;;;6155593;23;20021;-95
2022/01/12 01:42:20;;;;;;;101.95;37.60;;;3.90;99.90;;;;;;6157039;23;20021;-93
2022/01/12 01:55:27;;;;;;;149.57;41.92;;;4.00;99.90;;;;;;6272895;22;20030;-95
2022/01/12 01:57:55;;;;;;;173.27;48.28;;;4.00;99.90;;;;;;6248948;22;20016;-94
2022/01/12 02:00:24;;;;;;;169.77;49.83;;;4.00;99.90;;;;;;6250134;22;20023;-95
2022/01/12 02:02:53;;;;;;;128.23;45.83;;;4.00;99.90;;;;;;6250625;22;20067;-95
2022/01/12 02:05:19;;;;;;;175.35;45.70;;;4.00;99.90;;;;;;6249488;22;20019;-93
2022/01/12 02:07:44;;;;;;;145.40;45.17;;;4.00;99.90;;;;;;6248257;22;20026;-95
2022/01/12 02:10:10;;;;;;;148.15;47.08;;;4.00;99.90;;;;;;6248066;22;20027;-95
2022/01/12 02:12:36;;;;;;;136.05;46.08;;;4.00;99.90;;;;;;6248184;22;20448;-95
2022/01/12 02:15:11;;;;;;;245.38;55.13;;;4.00;99.90;;;;;;6251651;22;20341;-95
2022/01/12 02:17:42;;;;;;;227.10;53.92;;;4.00;99.90;;;;;;6250407;22;20080;-94
2022/01/12 02:20:26;;;;;;;202.18;48.63;;;4.00;99.90;;;;;;6275112;22;20027;-94
2022/01/12 02:37:01;;;;;;;257.33;57.10;;;4.00;99.90;;;;;;6272676;22;20024;-94
2022/01/12 02:42:16;;;;;;;223.45;54.67;;;4.00;99.90;;;;;;6275051;22;20015;-95
2022/01/12 02:55:41;;;;;;;246.23;51.75;;;4.10;99.90;;;;;;6272882;22;20099;-95
2022/01/12 02:58:07;;;;;;;191.75;51.15;;;4.10;99.90;;;;;;6248173;22;20012;-95
2022/01/12 03:00:52;;;;;;;228.38;54.92;;;4.10;99.90;;;;;;6246421;22;20051;-94
2022/01/12 03:03:22;;;;;;;127.43;42.10;;;4.10;99.90;;;;;;6273806;22;20030;-95
2022/01/12 03:05:57;;;;;;;136.88;45.38;;;4.10;99.90;;;;;;6246808;22;20015;-93
2022/01/12 03:08:24;;;;;;;116.63;43.03;;;4.10;99.90;;;;;;6247304;22;20011;-95
2022/01/12 03:10:50;;;;;;;114.03;42.28;;;4.10;99.90;;;;;;6272192;22;20054;-95
2022/01/12 03:13:16;;;;;;;113.38;43.38;;;4.20;99.90;;;;;;6248141;22;20329;-94
2022/01/12 03:15:42;;;;;;;126.68;42.53;;;4.10;99.90;;;;;;6246349;22;20015;-93
2022/01/12 03:18:08;;;;;;;185.15;49.92;;;4.20;99.90;;;;;;6247509;22;20118;-95
2022/01/12 03:20:34;;;;;;;305.67;54.20;;;4.20;99.90;;;;;;6246584;22;20023;-95
2022/01/12 03:23:00;;;;;;;258.58;56.75;;;4.20;99.90;;;;;;6247016;22;20015;-95
2022/01/12 03:25:26;;;;;;;381.08;63.17;;;4.20;99.90;;;;;;6272489;22;20051;-94
2022/01/12 03:27:56;;;;;;;366.45;64.88;;;4.20;99.90;;;;;;6247482;22;20334;-95
2022/01/12 03:30:22;;;;;;;272.03;57.90;;;4.20;99.90;;;;;;6248834;22;20345;-94
2022/01/12 03:33:03;;;;;;;255.68;55.75;;;4.20;99.90;;;;;;6246811;22;20015;-95
2022/01/12 03:35:48;;;;;;;181.68;45.70;;;4.20;99.90;;;;;;6246506;22;20449;-95
2022/01/12 03:38:20;;;;;;;324.70;54.42;;;4.20;99.90;;;;;;6247685;22;20094;-95
2022/01/12 03:40:49;;;;;;;306.75;59.22;;;4.20;99.90;;;;;;6246842;22;20526;-95
2022/01/12 03:43:18;;;;;;;309.05;57.78;;;4.20;99.90;;;;;;6247829;22;20015;-95
2022/01/12 03:45:47;;;;;;;332.75;63.80;;;4.20;99.90;;;;;;6246643;22;20098;-94
2022/01/12 03:48:13;;;;;;;317.73;58.45;;;4.20;99.90;;;;;;6247320;22;20019;-95
2022/01/12 03:50:39;;;;;;;265.98;55.17;;;4.20;99.90;;;;;;6246195;22;20075;-95
2022/01/12 03:53:05;;;;;;;168.05;51.35;;;4.30;99.90;;;;;;6247618;22;20023;-95
2022/01/12 03:55:31;;;;;;;144.57;44.78;;;4.30;99.90;;;;;;6246474;22;20380;-94
2022/01/12 03:58:12;;;;;;;149.10;46.03;;;4.20;99.90;;;;;;6247777;22;20073;-95
2022/01/12 04:00:38;;;;;;;335.98;58.28;;;4.30;99.90;;;;;;6246538;22;20012;-94
2022/01/12 04:03:06;;;;;;;209.10;53.03;;;4.20;99.90;;;;;;6222095;22;20042;-96
2022/01/12 04:08:20;;;;;;;199.75;53.00;;;4.30;99.90;;;;;;6273249;22;20097;-94
2022/01/12 04:10:50;;;;;;;207.93;50.40;;;4.20;99.90;;;;;;6246367;22;20020;-95
2022/01/12 04:13:23;;;;;;;329.55;60.67;;;4.30;99.90;;;;;;6247545;22;20412;-94
2022/01/12 04:15:52;;;;;;;275.67;52.20;;;4.30;99.90;;;;;;6246422;22;20460;-95
2022/01/12 04:18:17;;;;;;;140.93;50.22;;;4.20;99.90;;;;;;6246607;22;20018;-95
2022/01/12 04:20:47;;;;;;;121.75;42.17;;;4.30;99.90;;;;;;6246085;22;20020;-94
2022/01/12 04:23:17;;;;;;;125.78;44.17;;;4.30;99.90;;;;;;6247342;22;20018;-94
2022/01/12 04:25:48;;;;;;;109.90;41.33;;;4.20;99.90;;;;;;6246213;22;20314;-94
2022/01/12 04:28:15;;;;;;;193.52;47.72;;;4.30;99.90;;;;;;6272162;22;20077;-94
2022/01/12 04:30:41;;;;;;;127.38;43.85;;;4.20;99.90;;;;;;6246271;22;20067;-95
2022/01/12 04:33:07;;;;;;;128.50;45.80;;;4.20;99.90;;;;;;6274125;22;20456;-93
2022/01/12 04:35:36;;;;;;;195.05;49.08;;;4.20;99.90;;;;;;6273707;22;20019;-94
2022/01/12 04:38:03;;;;;;;127.95;43.42;;;4.20;99.90;;;;;;6248979;22;20012;-95
2022/01/12 04:40:28;;;;;;;125.18;43.85;;;4.20;99.90;;;;;;6272279;22;20365;-94
2022/01/12 04:43:08;;;;;;;136.27;46.17;;;4.20;99.90;;;;;;6246882;22;20027;-94
2022/01/12 04:45:56;;;;;;;125.53;41.63;;;4.20;99.90;;;;;;6220852;22;20042;-95
2022/01/12 04:50:51;;;;;;;139.88;44.67;;;4.10;99.90;;;;;;6272964;22;20019;-94
2022/01/12 04:53:19;;;;;;;141.48;44.80;;;4.10;99.90;;;;;;6247275;22;20019;-94
2022/01/12 04:55:49;;;;;;;235.70;50.72;;;4.00;99.90;;;;;;6246977;22;20069;-94
2022/01/12 04:58:34;;;;;;;167.48;44.65;;;4.00;99.90;;;;;;6248182;22;20022;-95
2022/01/12 05:01:08;;;;;;;165.88;46.85;;;4.00;99.90;;;;;;6250110;22;20016;-95
2022/01/12 05:13:59;;;;;;;105.88;37.83;;;3.70;99.90;;;;;;6301959;22;20059;-94
2022/01/12 05:16:25;;;;;;;;;;;3.60;99.90;;;;;;6256967;22;20016;-94
2022/01/12 05:18:53;;;;;;;109.63;36.05;;;3.50;99.90;;;;;;6249646;22;20354;-94
2022/01/12 05:21:21;;;;;;;334.83;48.67;;;3.40;99.90;;;;;;6248997;22;20024;-95
2022/01/12 05:23:47;;;;;;;103.10;34.22;;;3.40;99.90;;;;;;6247650;22;20030;-94
2022/01/12 05:26:12;;;;;;;95.82;33.15;;;3.40;99.90;;;;;;6248890;22;20095;-94
2022/01/12 05:28:44;;;;;;;90.90;34.63;;;3.30;99.90;;;;;;6273571;22;20054;-93
2022/01/12 05:31:12;;;;;;;96.47;33.38;;;3.30;99.90;;;;;;6248812;22;20020;-94
2022/01/12 05:33:40;;;;;;;158.73;33.55;;;3.20;99.90;;;;;;6247084;22;20018;-95
2022/01/12 05:36:06;;;;;;;172.43;39.03;;;3.20;99.90;;;;;;6274008;22;20482;-94
2022/01/12 05:38:33;;;;;;;119.45;34.90;;;3.30;99.90;;;;;;6247464;22;20003;-95
2022/01/12 05:41:02;;;;;;;133.30;34.72;;;3.30;99.90;;;;;;6248593;22;20069;-95
2022/01/12 05:43:49;;;;;;;238.48;42.22;;;3.30;99.90;;;;;;6248026;22;20023;-94
2022/01/12 05:46:16;;;;;;;153.27;35.55;;;3.40;99.90;;;;;;6221839;22;20464;-94
2022/01/12 05:51:28;;;;;;;151.40;38.03;;;3.40;99.90;;;;;;6166282;22;20412;-96
2022/01/12 05:53:55;;;;;;;205.10;44.70;;;3.40;99.90;;;;;;6287698;22;20035;-93
2022/01/12 05:56:21;;;;;;;273.63;48.80;;;3.40;99.90;;;;;;6292989;22;20038;-96
2022/01/12 05:58:47;;;;;;;326.05;48.15;;;3.40;99.90;;;;;;6215434;22;20035;-96
2022/01/12 06:01:13;;;;;;;164.75;38.97;;;3.50;99.90;;;;;;6261125;22;20023;-95
2022/01/12 06:03:39;;;;;;;184.32;40.55;;;3.40;99.90;;;;;;6235028;22;20016;-96
2022/01/12 06:06:04;;;;;;;163.15;37.50;;;3.40;99.90;;;;;;6270619;22;20023;-96
2022/01/12 06:08:30;;;;;;;141.98;35.10;;;3.40;99.90;;;;;;6239043;22;20012;-96
2022/01/12 06:10:56;;;;;;;557.10;61.25;;;3.40;99.90;;;;;;6255451;22;20444;-95
2022/01/12 06:13:22;;;;;;;388.55;47.55;;;3.30;99.90;;;;;;6240567;22;20012;-96
2022/01/12 06:15:48;;;;;;;549.78;65.00;;;3.30;99.90;;;;;;6243262;22;20054;-96
2022/01/12 06:18:13;;;;;;;489.25;56.90;;;3.30;99.90;;;;;;6229718;22;20028;-96
2022/01/12 06:20:39;;;;;;;213.35;37.92;;;3.40;99.90;;;;;;6232386;22;20112;-96
2022/01/12 06:23:07;;;;;;;260.63;41.10;;;3.30;99.90;;;;;;6258823;22;20016;-96
2022/01/12 06:25:36;;;;;;;155.52;34.58;;;3.30;99.90;;;;;;6233497;22;20058;-96
2022/01/12 06:33:31;;;;;;;107.70;31.67;;;3.30;99.90;;;;;;6266177;22;20028;-96
2022/01/12 06:35:57;;;;;;;335.50;41.90;;;3.20;99.90;;;;;;6266621;22;20035;-96
2022/01/12 06:44:20;;;;;;;138.02;29.50;;;3.10;99.90;;;;;;6153521;22;20109;31
2022/01/12 06:46:50;;;;;;;275.92;39.28;;;3.10;99.90;;;;;;6189792;23;20025;-93
2022/01/12 06:49:16;;;;;;;479.00;53.58;;;3.00;99.90;;;;;;6189154;23;20021;-96
2022/01/12 06:51:46;;;;;;;458.38;48.60;;;2.90;99.90;;;;;;6132990;23;20029;-93
2022/01/12 06:54:14;;;;;;;433.23;47.83;;;2.90;99.90;;;;;;6144474;23;20017;-95
2022/01/12 06:56:40;;;;;;;398.00;44.00;;;2.90;99.90;;;;;;6195552;23;20021;-96
2022/01/12 06:59:06;;;;;;;292.42;38.83;;;2.90;99.90;;;;;;6176424;23;20020;-96
2022/01/12 07:01:33;;;;;;;288.33;39.85;;;2.80;99.90;;;;;;6139919;23;20023;-94
2022/01/12 07:03:59;;;;;;;409.02;45.90;;;2.90;99.90;;;;;;6162974;23;20053;-94
2022/01/12 07:06:25;;;;;;;181.98;28.67;;;2.80;99.90;;;;;;6181231;23;20082;-93
2022/01/12 07:08:51;;;;;;;305.65;40.25;;;2.80;99.90;;;;;;6180952;23;20020;-94
2022/01/12 07:11:17;;;;;;;344.67;41.20;;;2.80;99.90;;;;;;6132637;23;20021;-94
2022/01/12 07:13:46;;;;;;;180.80;32.95;;;2.80;99.90;;;;;;6129691;23;20017;-96
2022/01/12 07:16:12;;;;;;;171.13;30.38;;;2.70;99.90;;;;;;6130541;23;20017;-92
2022/01/12 07:18:38;;;;;;;98.82;26.52;;;2.70;99.90;;;;;;6129645;23;20083;-92
2022/01/12 07:21:04;;;;;;;146.38;28.80;;;2.80;99.90;;;;;;6130592;23;20320;-91
2022/01/12 07:23:30;;;;;;;181.45;32.92;;;2.80;99.90;;;;;;6130952;23;20021;-92
2022/01/12 07:25:56;;;;;;;279.30;38.47;;;2.70;99.90;;;;;;6132016;23;20017;-94
2022/01/12 07:28:34;;;;;;;223.75;37.58;;;2.80;99.90;;;;;;6180906;23;20020;-94
2022/01/12 07:31:00;;;;;;;275.08;41.92;;;2.80;99.90;;;;;;6131628;23;20132;-93
2022/01/12 07:33:25;;;;;;;191.00;35.90;;;2.80;99.90;;;;;;6132015;23;20443;-94
2022/01/12 07:35:53;;;;;;;139.43;31.80;;;2.70;99.90;;;;;;6132210;23;20012;-92
2022/01/12 07:38:18;;;;;;;122.97;32.53;;;2.80;99.90;;;;;;6132136;23;20013;-93
2022/01/12 07:40:44;;;;;;;72.43;28.50;;;2.90;99.90;;;;;;6131459;23;20444;-93
2022/01/12 07:43:10;;;;;;;78.20;28.42;;;2.90;99.90;;;;;;6133053;23;20016;-93
2022/01/12 07:45:36;;;;;;;77.00;30.13;;;2.90;99.90;;;;;;6157649;23;20021;-94
2022/01/12 07:48:03;;;;;;;68.28;27.67;;;3.00;99.90;;;;;;6167125;23;20012;-93
2022/01/12 07:50:28;;;;;;;66.78;25.75;;;3.00;99.90;;;;;;6152875;23;19997;-93
2022/01/12 07:52:54;;;;;;;66.32;28.30;;;2.80;99.90;;;;;;6133162;23;20017;-93
2022/01/12 07:55:21;;;;;;;62.60;25.27;;;2.90;99.90;;;;;;6206435;23;20023;-92
2022/01/12 07:58:12;;;;;;;57.05;24.40;;;2.90;99.90;;;;;;6146444;23;20032;-92
2022/01/12 08:00:37;;;;;;;52.63;21.65;;;2.80;99.90;;;;;;6130216;23;20025;-92
2022/01/12 08:03:03;;;;;;;72.57;25.50;;;2.70;99.90;;;;;;6181075;23;20316;-93
2022/01/12 08:05:29;;;;;;;62.45;25.65;;;2.70;99.90;;;;;;6131017;23;20017;-92
2022/01/12 08:07:55;;;;;;;79.03;25.58;;;2.70;99.90;;;;;;6180789;23;20423;-92
2022/01/12 08:10:21;;;;;;;70.85;25.05;;;2.70;99.90;;;;;;6180588;23;20009;-92
2022/01/12 08:12:54;;;;;;;85.45;24.38;;;2.70;99.90;;;;;;6130381;23;20027;-92
2022/01/12 08:15:19;;;;;;;128.70;27.05;;;2.70;99.90;;;;;;6131614;23;20016;-92
2022/01/12 08:17:45;;;;;;;112.55;26.70;;;2.70;99.90;;;;;;6130530;23;20017;-93
2022/01/12 08:20:12;;;;;;;135.23;28.40;;;2.70;99.90;;;;;;6180314;23;20179;-92
2022/01/12 08:22:38;;;;;;;99.93;25.30;;;2.80;99.90;;;;;;6130802;23;20087;-93
2022/01/12 08:25:05;;;;;;;87.10;25.05;;;2.80;99.90;;;;;;6131630;23;20019;-93
2022/01/12 08:27:35;;;;;;;91.63;27.02;;;2.80;99.90;;;;;;6130039;23;20017;-94
2022/01/12 08:30:02;;;;;;;229.75;35.30;;;2.80;99.90;;;;;;6131754;23;20024;-92
2022/01/12 08:32:29;;;;;;;140.70;30.40;;;2.80;99.90;;;;;;6180199;23;20154;-93
2022/01/12 08:34:56;;;;;;;165.75;34.42;;;2.80;99.90;;;;;;6131432;23;20486;-92
2022/01/12 08:37:22;;;;;;;119.50;30.17;;;2.90;99.90;;;;;;6131593;23;20024;-92
2022/01/12 08:39:48;;;;;;;107.80;30.30;;;3.00;99.90;;;;;;6130414;23;20100;-93
2022/01/12 08:42:14;;;;;;;98.03;30.58;;;3.10;99.90;;;;;;6182119;23;20048;-93
2022/01/12 08:44:44;;;;;;;117.30;33.45;;;3.10;99.90;;;;;;6132116;23;20017;-93
2022/01/12 08:47:09;;;;;;;99.28;31.10;;;3.20;99.90;;;;;;6133644;23;20060;-93
2022/01/12 08:49:35;;;;;;;102.65;31.55;;;3.30;99.90;;;;;;6132436;23;20064;-93
2022/01/12 08:52:01;;;;;;;104.88;30.92;;;3.40;99.90;;;;;;6133639;23;20017;-93
2022/01/12 08:54:26;;;;;;;95.47;31.20;;;3.50;99.90;;;;;;6133096;23;20048;-93
2022/01/12 08:56:52;;;;;;;93.07;31.13;;;3.60;99.90;;;;;;6132558;23;20017;-93
2022/01/12 08:59:27;;;;;;;86.85;30.92;;;3.60;99.90;;;;;;6133560;23;20009;-93
2022/01/12 09:01:53;;;;;;;77.13;28.73;;;3.70;99.90;;;;;;6132443;23;20017;-93
2022/01/12 09:04:20;;;;;;;96.05;29.50;;;3.80;99.90;;;;;;6133415;23;20009;-92
2022/01/12 09:06:45;;;;;;;83.60;27.95;;;3.80;99.90;;;;;;6132190;23;20025;-94
2022/01/12 09:09:11;;;;;;;74.07;27.67;;;3.90;99.90;;;;;;6157752;23;20013;-93
2022/01/12 09:11:37;;;;;;;76.68;26.10;;;4.00;99.90;;;;;;6131911;23;20021;-94
2022/01/12 09:14:18;;;;;;;69.68;27.70;;;4.00;99.90;;;;;;6133503;23;20017;-93
2022/01/12 09:16:44;;;;;;;67.57;26.70;;;4.00;99.90;;;;;;6132266;23;20064;-93
2022/01/12 09:19:10;;;;;;;62.85;23.98;;;4.10;99.90;;;;;;6133226;23;20066;-93
2022/01/12 09:21:36;;;;;;;72.53;25.15;;;4.10;99.90;;;;;;6132471;23;20104;-93
2022/01/12 09:24:01;;;;;;;79.57;27.75;;;4.10;99.90;;;;;;6133869;23;20390;-94
2022/01/12 09:26:27;;;;;;;95.70;28.40;;;4.20;99.90;;;;;;6133736;23;20080;-93
2022/01/12 09:29:01;;;;;;;95.82;28.95;;;4.20;99.90;;;;;;6133881;23;20338;-93
2022/01/12 09:31:26;;;;;;;67.45;26.23;;;4.20;99.90;;;;;;6132692;23;20391;-93
2022/01/12 09:33:52;;;;;;;79.03;25.98;;;4.20;99.90;;;;;;6133040;23;20049;-93
2022/01/12 09:36:17;;;;;;;66.03;23.23;;;4.30;99.90;;;;;;6182145;23;20028;-93
2022/01/12 09:38:43;;;;;;;66.45;25.50;;;4.30;99.90;;;;;;6132104;23;20039;-93
2022/01/12 09:41:09;;;;;;;83.82;26.25;;;4.40;99.90;;;;;;6182836;23;20021;-92
2022/01/12 09:43:41;;;;;;;78.60;24.60;;;4.50;99.90;;;;;;6132472;23;20485;-94
2022/01/12 09:46:08;;;;;;;83.10;28.05;;;4.50;99.90;;;;;;6133261;23;20091;-93
2022/01/12 09:48:34;;;;;;;74.93;23.77;;;4.60;99.90;;;;;;6132355;23;20316;-94
2022/01/12 09:51:04;;;;;;;69.60;24.27;;;4.70;99.90;;;;;;6133077;23;20067;-94
2022/01/12 09:53:31;;;;;;;77.40;28.45;;;4.70;99.90;;;;;;6131602;23;20402;-93
2022/01/12 09:55:57;;;;;;;76.40;23.10;;;4.80;99.90;;;;;;6133483;23;20025;-94
2022/01/12 09:58:32;;;;;;;59.17;22.63;;;4.80;99.90;;;;;;6133049;23;20020;-93
2022/01/12 10:00:59;;;;;;;57.53;21.55;;;4.90;99.90;;;;;;6133343;23;20428;-94
2022/01/12 10:03:27;;;;;;;61.40;22.50;;;5.00;99.90;;;;;;6133071;23;20013;-94
2022/01/12 10:05:53;;;;;;;55.28;19.52;;;5.10;99.90;;;;;;6132664;23;20095;-95
2022/01/12 10:08:19;;;;;;;57.33;20.02;;;5.10;99.90;;;;;;6132878;23;20013;-94
2022/01/12 10:11:11;;;;;;;60.20;22.45;;;5.10;99.90;;;;;;6181115;23;20021;-95
2022/01/12 10:13:43;;;;;;;50.92;19.25;;;5.20;99.90;;;;;;6132391;23;20025;-94
2022/01/12 10:16:17;;;;;;;51.60;16.98;;;5.30;99.90;;;;;;6133210;23;20339;-94
2022/01/12 10:18:49;;;;;;;50.25;18.40;;;5.30;99.90;;;;;;6181307;23;20095;-94
2022/01/12 10:21:33;;;;;;;49.22;18.05;;;5.40;99.90;;;;;;6133286;23;20160;-95
2022/01/12 10:24:02;;;;;;;50.70;18.25;;;5.50;99.90;;;;;;6158761;23;20024;-94
2022/01/12 10:26:34;;;;;;;47.67;16.35;;;5.50;99.90;;;;;;6196436;23;20013;-95
2022/01/12 10:29:19;;;;;;;;;;;5.50;99.90;;;;;;6204407;23;20013;-94
2022/01/12 10:31:51;;;;;;;48.05;16.20;;;5.50;99.90;;;;;;6167704;23;19939;-94
2022/01/12 10:34:20;;;;;;;47.60;16.67;;;5.60;99.90;;;;;;6159269;23;20017;-93
2022/01/12 10:36:47;;;;;;;46.95;16.13;;;5.70;99.90;;;;;;6136829;23;20059;-95
2022/01/12 10:39:15;;;;;;;32.55;12.45;;;5.70;99.90;;;;;;6134350;23;20013;-93
2022/01/12 10:41:52;;;;;;;39.35;13.00;;;5.70;99.90;;;;;;6131278;23;20028;-94
2022/01/12 10:44:42;;;;;;;39.47;14.25;;;5.80;99.90;;;;;;6129731;23;20025;-95
2022/01/12 10:47:16;;;;;;;43.20;12.47;;;5.80;99.90;;;;;;6094125;23;20022;-94
2022/01/12 10:50:06;;;;;;;43.55;13.65;;;5.80;99.90;;;;;;6103146;23;20045;-94
2022/01/12 10:52:39;;;;;;;47.25;14.70;;;5.80;99.90;;;;;;6095262;23;20053;-95
2022/01/12 10:55:07;;;;;;;46.33;16.67;;;5.80;99.90;;;;;;6103049;23;20024;-94
2022/01/12 10:57:36;;;;;;;48.15;15.95;;;5.80;99.90;;;;;;6102528;23;20120;-95
2022/01/12 11:00:23;;;;;;;41.85;15.90;;;5.80;99.90;;;;;;6103300;23;20061;-93
2022/01/12 11:02:56;;;;;;;39.78;16.85;;;5.70;99.90;;;;;;6102997;23;20013;-96
2022/01/12 11:05:29;;;;;;;49.78;15.63;;;5.80;99.90;;;;;;6102982;23;20068;-95
2022/01/12 11:07:55;;;;;;;51.70;17.20;;;5.80;99.90;;;;;;6127625;23;20100;-95
2022/01/12 11:10:22;;;;;;;54.03;17.60;;;5.80;99.90;;;;;;6127544;23;20018;-94
2022/01/12 11:12:49;;;;;;;51.78;17.63;;;5.80;99.90;;;;;;6102067;23;20052;-93
2022/01/12 11:15:21;;;;;;;49.22;16.63;;;5.90;99.90;;;;;;6103036;23;20013;-95
2022/01/12 11:17:49;;;;;;;51.28;15.45;;;5.90;99.90;;;;;;6103320;23;20025;-95
2022/01/12 11:20:19;;;;;;;48.88;15.20;;;5.90;99.90;;;;;;6102707;23;20358;-94
2022/01/12 11:23:03;;;;;;;54.65;15.90;;;5.90;99.90;;;;;;6102640;23;20466;-95
2022/01/12 11:25:37;;;;;;;51.58;14.88;;;6.00;99.90;;;;;;6102773;23;20016;-95
2022/01/12 11:28:36;;;;;;;41.78;13.13;;;6.00;99.90;;;;;;6102740;23;20022;-93
2022/01/12 11:31:04;;;;;;;44.28;17.10;;;5.90;99.90;;;;;;6102936;23;20049;-93
2022/01/12 11:33:30;;;;;;;47.08;16.65;;;6.00;99.90;;;;;;6126993;23;20005;-94
2022/01/12 11:35:59;;;;;;;55.05;17.00;;;6.00;99.90;;;;;;6102428;23;20395;-95
2022/01/12 11:38:28;;;;;;;49.40;17.58;;;6.00;99.90;;;;;;6102759;23;20014;-93
2022/01/12 11:41:09;;;;;;;38.05;14.20;;;6.00;99.90;;;;;;6102784;23;20018;-93
2022/01/12 11:43:53;;;;;;;35.45;12.32;;;6.00;99.90;;;;;;6102306;23;20017;-95
2022/01/12 11:46:21;;;;;;;34.75;12.15;;;6.00;99.90;;;;;;6125554;23;20100;-94
2022/01/12 11:48:52;;;;;;;35.83;11.50;;;6.10;99.90;;;;;;6127546;23;20056;-94
2022/01/12 11:51:31;;;;;;;32.50;11.98;;;6.10;99.90;;;;;;6128136;23;20028;-96
2022/01/12 11:54:06;;;;;;;34.88;11.95;;;6.10;99.90;;;;;;6127620;23;20061;-94
2022/01/12 11:56:32;;;;;;;41.25;13.63;;;6.20;99.90;;;;;;6126557;23;20393;-96
2022/01/12 11:59:17;;;;;;;36.75;11.73;;;6.10;99.90;;;;;;6152071;23;20020;-95
2022/01/12 12:01:49;;;;;;;36.53;12.50;;;6.10;99.90;;;;;;6126461;23;20072;-95
2022/01/12 12:04:29;;;;;;;39.47;13.02;;;6.10;99.90;;;;;;6126398;23;20048;-94
2022/01/12 12:07:13;;;;;;;42.20;12.20;;;6.00;99.90;;;;;;6126831;23;20096;-94
2022/01/12 12:09:43;;;;;;;33.47;10.65;;;6.00;99.90;;;;;;6151166;23;20017;-95
2022/01/12 12:12:17;;;;;;;38.47;11.13;;;5.90;99.90;;;;;;6151891;23;20013;-95
2022/01/12 12:14:54;;;;;;;36.95;10.40;;;6.00;99.90;;;;;;6126506;23;20482;-95
2022/01/12 12:17:22;;;;;;;43.05;12.95;;;6.00;99.90;;;;;;6128808;23;20013;-95
2022/01/12 12:19:49;;;;;;;40.50;12.57;;;6.00;99.90;;;;;;6128453;23;20068;-94
2022/01/12 12:22:22;;;;;;;44.15;11.88;;;6.20;99.90;;;;;;6129005;23;20013;-94
2022/01/12 12:24:53;;;;;;;50.45;15.00;;;6.00;99.90;;;;;;6128760;23;20045;-95
2022/01/12 12:27:21;;;;;;;39.38;14.15;;;6.10;99.90;;;;;;6129321;23;20021;-95
2022/01/12 12:29:56;;;;;;;53.33;16.42;;;6.20;99.90;;;;;;6128994;23;20514;-96
2022/01/12 12:32:36;;;;;;;45.85;14.82;;;6.20;99.90;;;;;;6128983;23;20060;-95
2022/01/12 12:35:08;;;;;;;38.77;13.53;;;6.20;99.90;;;;;;6128588;23;20013;-95
2022/01/12 12:37:59;;;;;;;44.30;14.18;;;6.20;99.90;;;;;;6128510;23;20074;-96
2022/01/12 12:40:29;;;;;;;43.17;16.15;;;6.20;99.90;;;;;;6153208;23;20456;-96
2022/01/12 12:43:15;;;;;;;42.53;16.25;;;6.10;99.90;;;;;;6129648;23;20057;-96
2022/01/12 12:46:11;;;;;;;40.72;16.70;;;6.10;99.90;;;;;;6175948;23;20025;-96
2022/01/12 12:48:37;;;;;;;38.50;16.92;;;6.10;99.90;;;;;;6157496;23;20021;-95
2022/01/12 12:51:09;;;;;;;40.40;17.25;;;6.10;99.90;;;;;;6159454;23;20522;-95
2022/01/12 12:53:36;;;;;;;;;;;6.10;99.90;;;;;;6134545;23;20099;-94
2022/01/12 12:56:04;;;;;;;42.83;17.30;;;6.10;99.90;;;;;;6136335;23;19916;-95
2022/01/12 12:58:36;;;;;;;38.53;17.38;;;6.10;99.90;;;;;;6136752;23;20009;-96
2022/01/12 13:01:08;;;;;;;34.45;17.23;;;6.10;99.90;;;;;;6178600;23;20075;-96
2022/01/12 13:03:35;;;;;;;36.60;16.95;;;6.10;99.90;;;;;;6142330;23;20012;-95
2022/01/12 13:06:01;;;;;;;36.20;16.20;;;6.10;99.90;;;;;;6148653;23;20005;-95
2022/01/12 13:08:27;;;;;;;34.00;16.67;;;6.10;99.90;;;;;;6158930;23;20017;-94
2022/01/12 13:10:53;;;;;;;33.03;14.07;;;6.20;99.90;;;;;;6161694;23;20397;-96
2022/01/12 13:13:18;;;;;;;32.45;15.55;;;6.10;99.90;;;;;;6135820;23;20457;-96
2022/01/12 13:15:48;;;;;;;29.55;13.95;;;6.10;99.90;;;;;;6134037;23;20021;-96
2022/01/12 13:18:21;;;;;;;28.58;13.88;;;6.10;99.90;;;;;;6136058;23;20092;-95
2022/01/12 13:21:07;;;;;;;29.52;14.23;;;6.10;99.90;;;;;;6141810;23;20021;-95
2022/01/12 13:23:49;;;;;;;29.83;14.30;;;6.00;99.90;;;;;;6143817;23;20027;-93
2022/01/12 13:26:17;;;;;;;26.38;12.40;;;6.00;99.90;;;;;;6143053;23;20044;-96
2022/01/12 13:28:50;;;;;;;26.30;12.65;;;6.00;99.90;;;;;;6134210;23;20036;-96
2022/01/12 13:31:19;;;;;;;31.27;11.88;;;5.70;99.90;;;;;;6165780;23;20021;-95
2022/01/12 13:33:51;;;;;;;28.40;12.23;;;5.70;99.90;;;;;;6135517;23;20017;-96
2022/01/12 13:36:18;;;;;;;32.05;12.65;;;5.70;99.90;;;;;;6135490;23;20025;-95
2022/01/12 13:38:57;;;;;;;30.48;10.70;;;5.70;99.90;;;;;;6135236;23;20320;-95
2022/01/12 13:41:32;;;;;;;26.80;10.63;;;5.60;99.90;;;;;;6135508;23;20017;-93
2022/01/12 13:44:10;;;;;;;35.85;12.63;;;5.60;99.90;;;;;;6133575;23;20017;-95
2022/01/12 13:46:38;;;;;;;32.15;14.25;;;5.50;99.90;;;;;;6103477;23;20393;-94
2022/01/12 13:51:43;;;;;;;41.95;16.33;;;5.60;99.90;;;;;;6128104;23;20347;-95
2022/01/12 13:54:14;;;;;;;33.20;12.93;;;5.60;99.90;;;;;;6105230;23;20049;-96
2022/01/12 13:56:51;;;;;;;33.50;14.85;;;5.50;99.90;;;;;;6106810;23;20018;-95
2022/01/12 13:59:45;;;;;;;35.78;14.93;;;5.50;99.90;;;;;;6104746;23;20024;-94
2022/01/12 14:02:16;;;;;;;39.40;16.63;;;5.60;99.90;;;;;;6105151;23;20021;-96
2022/01/12 14:04:54;;;;;;;33.97;14.60;;;5.60;99.90;;;;;;6105547;23;20017;-95
2022/01/12 14:07:24;;;;;;;32.88;14.20;;;5.50;99.90;;;;;;6107620;23;20025;-96
2022/01/12 14:09:55;;;;;;;38.88;16.08;;;5.50;99.90;;;;;;6106136;23;20214;-95
2022/01/12 14:12:24;;;;;;;47.33;15.98;;;5.50;99.90;;;;;;6104881;23;20019;-96
2022/01/12 14:15:06;;;;;;;37.25;15.80;;;5.50;99.90;;;;;;6104122;23;20343;-94